Fair Play, MO (65649)

12:41 PM CDT on April 27, 2015 (GMT -0500)
Between Arnica And Bugtussle | | Change Station
CLOSE
Current Station
Personal Weather Station
Location: Humansville, MO
Elevation: 1010 ft
Nearby Weather Stations

Elev 1010 ft 37.75 °N, 93.67 °W | Updated 1 minute ago

Clear
Clear
62.6 °F
Feels Like 62.6 °F
N
6.9
Wind Variable Wind from East
Gusts 6.9 mph

Today
High -- | Low -- °F
--% Chance of Precip.
Yesterday
High -- | Low -- °F
Precip. -- in
6:24 AM 8:00 PM
Waxing Gibbous, 66% visible
Pressure 30.05 in
Visibility 10.0 miles
Clouds Clear
Dew Point 35 °F
Humidity 36%
Rainfall 0.00 in
Snow Depth Not available.
UV 10 out of 12
Pollen 10.70 out of 12
Air Quality Not available.
Flu Activity Local Activity
METAR KSGF 271652Z 08011G19KT 10SM CLR 16/01 A3005 RMK AO2 PK WND 08027/1622 SLP174 T01560006

More Conditions Fewer Conditions

Pressure 30.05 in
Visibility 10.0 miles
Clouds Clear
Dew Point 35 °F
Humidity 36%
Rainfall 0.00 in
Snow Depth Not available.
UV 10 out of 12
Pollen 10.70 out of 12
Air Quality Not available.
Flu Activity Local Activity
METAR KSGF 271652Z 08011G19KT 10SM CLR 16/01 A3005 RMK AO2 PK WND 08027/1622 SLP174 T01560006

More Conditions Fewer Conditions

10-Day Weather Forecast

Almanac

Astronomy

Apr. 27, 2015 Rise Set
Actual Time
Civil Twilight
Nautical Twilight
Astronomical Twilight
Moon
Length of Visible Light
Length of Day
Tomorrow will be .
, % of the Moon is Illuminated

Today's Extremes

State Highs State Lows

Community

WunderPhotos

Upload Photos

1,817,367 photos uploaded!

WunderBlogs® & News

Nearby

Air Quality

  Air Quality AQ Index Pollutant
Not available.

Snow Depth

Station Depth Elevation

Earthquake Activity

City Distance Mag. Time & Date
Minimum magnitude displayed is 2.5.

Coastal Water Temperatures

Place Temperature

Stations

Nearby Weather Stations

Station Location Temp. Windchill Dew Point Humidity Wind Precip. Elev Updated Type